Time;durP1;ratioP1;P1;durP2;ratioP2;P2;SDS_P1;SDS_P2;PMS_P1;PMS_P2;Temp;Humidity;BMP_temperature;BMP_pressure;BME280_temperature;BME280_humidity;BME280_pressure;Samples;Min_cycle;Max_cycle;Signal;HPM_P1;HPM_P2
2024/03/02 00:00:55;;;;;;;0.30;0.13;;;;;;;4.42;97.50;99056.50;5070318;28;20871;-48
2024/03/02 00:03:22;;;;;;;0.30;0.20;;;;;;;4.16;97.82;99057.09;5070647;28;20451;-47
2024/03/02 00:05:51;;;;;;;0.30;0.20;;;;;;;4.07;98.11;99057.28;5070913;28;20490;-48
2024/03/02 00:08:25;;;;;;;0.30;0.20;;;;;;;4.00;97.69;99055.72;5074732;28;20469;-48
2024/03/02 00:10:57;;;;;;;0.30;0.10;;;;;;;4.12;98.09;99055.44;5074647;28;20868;-48
2024/03/02 00:13:24;;;;;;;0.30;0.20;;;;;;;4.16;97.82;99055.31;5075704;28;20536;-48
2024/03/02 00:15:55;;;;;;;0.20;0.17;;;;;;;3.99;97.15;99048.72;5074869;28;20450;-49
2024/03/02 00:18:32;;;;;;;0.30;0.20;;;;;;;3.98;97.32;99049.63;5074765;28;20470;-48
2024/03/02 00:21:00;;;;;;;0.20;0.10;;;;;;;4.15;97.71;99050.09;5075509;28;20452;-48
2024/03/02 00:23:29;;;;;;;0.30;0.20;;;;;;;4.32;98.44;99052.34;5076131;28;20485;-49
2024/03/02 00:25:57;;;;;;;0.20;0.10;;;;;;;4.18;98.18;99043.91;5076405;28;20485;-48
2024/03/02 00:28:28;;;;;;;0.27;0.10;;;;;;;4.31;98.18;99048.84;5073808;28;20908;-49
2024/03/02 00:31:13;;;;;;;0.30;0.20;;;;;;;4.37;98.46;99042.56;5065593;28;20820;-47
2024/03/02 00:33:45;;;;;;;0.23;0.10;;;;;;;4.33;98.11;99043.53;5072255;28;20449;-48
2024/03/02 00:36:14;;;;;;;0.30;0.20;;;;;;;4.32;97.99;99036.56;5047692;28;20436;-47
2024/03/02 00:38:48;;;;;;;0.20;0.10;;;;;;;4.47;99.04;99036.19;5048005;28;20470;-49
2024/03/02 00:41:22;;;;;;;0.20;0.20;;;;;;;4.68;98.99;99038.31;5074737;28;20438;-48
2024/03/02 00:44:00;;;;;;;0.20;0.10;;;;;;;4.67;99.07;99043.59;5066296;28;20454;-48
2024/03/02 00:46:33;;;;;;;0.20;0.10;;;;;;;4.59;99.05;99035.88;5074604;28;20450;-49
2024/03/02 00:49:02;;;;;;;0.20;0.10;;;;;;;4.82;98.94;99035.31;5074513;28;20469;-48
2024/03/02 00:51:30;;;;;;;0.30;0.17;;;;;;;4.92;98.39;99041.19;5074591;28;20509;-48
2024/03/02 00:54:04;;;;;;;7.13;6.70;;;;;;;4.84;98.31;99030.00;5049866;28;20942;-48
2024/03/02 00:56:32;;;;;;;0.30;0.20;;;;;;;4.89;97.94;99028.13;5047895;28;20464;-48
2024/03/02 00:58:58;;;;;;;0.20;0.10;;;;;;;4.64;98.59;99015.56;5027779;28;1338273;-48
2024/03/02 01:01:25;;;;;;;0.30;0.10;;;;;;;4.88;98.96;99021.97;5049943;28;20208;-49
2024/03/02 01:03:52;;;;;;;0.20;0.10;;;;;;;4.92;98.20;99028.03;5074819;28;20446;-49
2024/03/02 01:06:19;;;;;;;0.23;0.13;;;;;;;4.70;99.34;99023.34;5075163;28;20446;-48
2024/03/02 01:08:47;;;;;;;0.30;0.10;;;;;;;4.80;99.73;99026.59;5075010;28;21057;-48
2024/03/02 01:11:13;;;;;;;0.30;0.10;;;;;;;4.86;98.68;99020.31;5075230;28;20454;-48
2024/03/02 01:13:40;;;;;;;0.20;0.10;;;;;;;4.94;98.70;99035.00;5074018;28;20481;-48
2024/03/02 01:16:06;;;;;;;0.20;0.10;;;;;;;4.81;98.97;99033.59;5074133;28;20446;-48
2024/03/02 01:18:33;;;;;;;0.30;0.20;;;;;;;4.69;100.00;99018.09;5073992;28;20476;-48
2024/03/02 01:21:00;;;;;;;1.83;1.73;;;;;;;4.88;99.58;99027.25;5074418;28;20552;-47
2024/03/02 01:23:26;;;;;;;0.20;0.10;;;;;;;4.69;100.00;99021.59;5074080;28;20540;-47
2024/03/02 01:25:53;;;;;;;0.20;0.10;;;;;;;4.59;100.00;99022.72;5073672;28;20931;-48
2024/03/02 01:28:20;;;;;;;0.20;0.10;;;;;;;4.62;99.69;99009.50;5073749;28;20553;-48
2024/03/02 01:30:48;;;;;;;0.30;0.20;;;;;;;4.64;99.61;99023.47;5067531;28;20447;-48
2024/03/02 01:33:15;;;;;;;0.20;0.20;;;;;;;4.50;99.46;99020.31;5066071;28;20449;-48
2024/03/02 01:35:42;;;;;;;0.30;0.10;;;;;;;4.52;98.92;99017.66;5055081;28;20447;-47
2024/03/02 01:38:08;;;;;;;0.30;0.20;;;;;;;4.37;99.76;99018.88;5051932;28;20502;-49
2024/03/02 01:40:36;;;;;;;0.20;0.10;;;;;;;4.51;99.90;99018.53;5073632;28;20544;-48
2024/03/02 01:43:04;;;;;;;0.20;0.10;;;;;;;4.23;99.69;99011.31;5064242;28;20542;-48
2024/03/02 01:45:32;;;;;;;0.20;0.10;;;;;;;4.30;99.47;99005.03;5073166;28;20493;-48
2024/03/02 01:47:59;;;;;;;0.30;0.10;;;;;;;4.35;98.96;99010.16;5073093;28;20917;-48
2024/03/02 01:50:28;;;;;;;0.30;0.20;;;;;;;4.08;98.54;99009.91;5073885;28;20456;-48
2024/03/02 01:52:58;;;;;;;0.30;0.20;;;;;;;4.11;98.80;99011.59;5073248;28;20446;-47
2024/03/02 01:55:25;;;;;;;0.30;0.10;;;;;;;4.03;98.89;99003.06;5073031;28;20442;-47
2024/03/02 01:57:52;;;;;;;0.20;0.10;;;;;;;3.95;98.86;99000.59;5073843;28;20568;-49
2024/03/02 02:00:20;;;;;;;0.20;0.20;;;;;;;4.03;99.38;99006.53;5073855;28;20456;-47
2024/03/02 02:02:48;;;;;;;0.20;0.10;;;;;;;3.82;98.56;99004.38;5072133;28;20450;-47
2024/03/02 02:05:15;;;;;;;0.30;0.10;;;;;;;3.78;98.45;98993.09;5073938;28;20535;-48
2024/03/02 02:07:42;;;;;;;0.30;0.10;;;;;;;3.77;98.52;98993.13;5073889;28;20472;-49
2024/03/02 02:10:10;;;;;;;0.30;0.20;;;;;;;3.63;98.28;98996.06;5073709;28;20938;-48
2024/03/02 02:12:37;;;;;;;0.20;0.10;;;;;;;3.67;98.05;99002.97;5073429;28;20828;-48
2024/03/02 02:15:28;;;;;;;0.20;0.10;;;;;;;3.93;98.58;98993.63;5073650;28;20532;-47
2024/03/02 02:17:56;;;;;;;0.30;0.30;;;;;;;3.94;98.64;98998.00;5073583;28;20466;-48
2024/03/02 02:20:24;;;;;;;0.20;0.10;;;;;;;3.95;98.48;98997.09;5073297;28;20442;-48
2024/03/02 02:23:00;;;;;;;0.20;0.17;;;;;;;4.06;99.61;98993.31;5073687;28;20445;-48
2024/03/02 02:25:27;;;;;;;0.20;0.10;;;;;;;4.10;99.92;98984.44;5073086;28;20527;-47
2024/03/02 02:27:55;;;;;;;0.20;0.10;;;;;;;4.16;99.33;98978.19;5072972;28;20561;-48
2024/03/02 02:30:29;;;;;;;0.30;0.20;;;;;;;4.13;99.05;98973.03;5072625;28;21073;-49
2024/03/02 02:32:56;;;;;;;0.20;0.20;;;;;;;3.97;98.49;98975.13;5062800;28;20480;-47
2024/03/02 02:35:26;;;;;;;1.13;0.30;;;;;;;3.84;98.17;98981.59;5059027;28;20525;-48
2024/03/02 02:37:55;;;;;;;0.20;0.10;;;;;;;3.79;97.97;98980.81;5046682;28;20983;-48
2024/03/02 02:40:22;;;;;;;0.20;0.10;;;;;;;3.61;97.58;98979.47;5072526;28;20450;-48
2024/03/02 02:42:49;;;;;;;0.20;0.10;;;;;;;3.65;97.97;98982.88;5065213;28;20616;-48
2024/03/02 02:45:16;;;;;;;0.20;0.20;;;;;;;3.65;98.75;98975.84;5073301;28;20495;-48
2024/03/02 02:47:43;;;;;;;0.50;0.50;;;;;;;3.65;98.71;98977.63;5073037;28;20474;-47
2024/03/02 02:50:11;;;;;;;0.20;0.10;;;;;;;3.40;97.30;98978.13;5073043;28;20449;-48
2024/03/02 02:52:40;;;;;;;0.20;0.13;;;;;;;3.30;97.08;98979.25;5073180;28;20544;-47
2024/03/02 02:55:11;;;;;;;0.20;0.10;;;;;;;3.27;97.49;98977.53;5074093;28;20542;-47
2024/03/02 02:57:41;;;;;;;0.20;0.10;;;;;;;3.31;97.74;98970.47;5076568;28;20507;-48
2024/03/02 03:00:18;;;;;;;1.53;1.53;;;;;;;3.03;97.75;98966.69;5076896;28;20446;-50
2024/03/02 03:02:48;;;;;;;1.33;1.33;;;;;;;2.98;97.80;98961.50;5075392;28;20441;-50
2024/03/02 03:05:16;;;;;;;0.20;0.10;;;;;;;3.12;97.63;98966.47;5076503;28;20491;-50
2024/03/02 03:07:44;;;;;;;0.20;0.10;;;;;;;2.96;96.60;98956.28;5076245;28;20557;-50
2024/03/02 03:10:11;;;;;;;0.20;0.10;;;;;;;2.93;97.48;98961.59;5076087;28;21062;-50
2024/03/02 03:12:37;;;;;;;0.20;0.10;;;;;;;2.84;97.71;98963.53;5076203;28;20545;-50
2024/03/02 03:15:04;;;;;;;0.20;0.10;;;;;;;2.78;98.02;98963.66;5075986;28;20453;-50
2024/03/02 03:17:31;;;;;;;0.30;0.20;;;;;;;2.82;97.94;98955.69;5076155;28;20511;-51
2024/03/02 03:19:58;;;;;;;0.20;0.10;;;;;;;2.75;97.71;98958.47;5076145;28;20449;-50
2024/03/02 03:22:25;;;;;;;0.20;0.10;;;;;;;2.97;98.28;98954.53;5076041;28;20839;-50
2024/03/02 03:24:51;;;;;;;0.20;0.10;;;;;;;2.91;98.75;98949.41;5075964;28;20501;-50
2024/03/02 03:27:19;;;;;;;0.20;0.10;;;;;;;2.85;98.96;98963.50;5076153;28;20446;-51
2024/03/02 03:29:46;;;;;;;0.20;0.10;;;;;;;3.18;98.26;98961.13;5076387;28;20473;-51
2024/03/02 03:32:13;;;;;;;0.20;0.10;;;;;;;3.05;97.30;98968.38;5062521;28;20872;-50
2024/03/02 03:34:40;;;;;;;0.20;0.10;;;;;;;2.93;97.96;98977.34;5075315;28;20449;-50
2024/03/02 03:37:06;;;;;;;0.20;0.10;;;;;;;2.86;98.25;98972.22;5043979;28;20857;-51
2024/03/02 03:39:34;;;;;;;0.20;0.10;;;;;;;2.71;97.59;98967.25;5070463;28;20470;-50
2024/03/02 03:42:00;;;;;;;0.20;0.10;;;;;;;2.55;98.12;98961.44;5073740;28;20467;-51
2024/03/02 03:44:27;;;;;;;0.20;0.10;;;;;;;2.71;97.70;98969.88;5069942;28;20449;-51
2024/03/02 03:46:53;;;;;;;0.20;0.10;;;;;;;2.59;98.98;98970.97;5075568;28;20576;-50
2024/03/02 03:49:20;;;;;;;0.20;0.10;;;;;;;2.37;97.82;98967.88;5075453;28;20561;-50
2024/03/02 03:51:47;;;;;;;0.20;0.10;;;;;;;2.57;98.06;98975.38;5075591;28;20456;-51
2024/03/02 03:54:13;;;;;;;0.20;0.20;;;;;;;2.43;96.99;98970.38;5075138;28;20450;-50
2024/03/02 03:56:40;;;;;;;0.20;0.10;;;;;;;2.54;97.97;98971.06;5075422;28;20446;-51
2024/03/02 03:59:06;;;;;;;0.20;0.10;;;;;;;2.51;97.89;98965.88;5075492;28;20987;-51
2024/03/02 04:01:33;;;;;;;0.20;0.13;;;;;;;2.57;97.52;98957.88;5074352;28;20442;-51
2024/03/02 04:04:01;;;;;;;0.20;0.13;;;;;;;2.56;98.17;98971.03;5076032;28;20454;-51
2024/03/02 04:06:28;;;;;;;0.20;0.10;;;;;;;2.18;100.00;98967.28;5075894;28;20903;-51
2024/03/02 04:08:54;;;;;;;0.20;0.10;;;;;;;2.28;100.00;98965.41;5075760;28;20535;-51
2024/03/02 04:11:21;;;;;;;0.20;0.10;;;;;;;2.37;100.00;98960.88;5075849;28;20489;-50
2024/03/02 04:13:47;;;;;;;0.20;0.10;;;;;;;2.51;100.00;98965.00;5075155;28;20479;-50
2024/03/02 04:16:14;;;;;;;0.20;0.10;;;;;;;2.62;99.38;98968.31;5075370;28;20478;-50
2024/03/02 04:18:41;;;;;;;0.20;0.10;;;;;;;2.37;97.92;98981.84;5074869;28;20904;-50
2024/03/02 04:21:08;;;;;;;0.20;0.10;;;;;;;2.26;97.83;98980.28;5075194;28;20449;-50
2024/03/02 04:23:34;;;;;;;0.20;0.10;;;;;;;2.22;98.06;98979.47;5074956;28;20524;-50
2024/03/02 04:26:01;;;;;;;0.20;0.10;;;;;;;2.12;97.81;98980.50;5074610;28;20926;-51
2024/03/02 04:28:28;;;;;;;0.20;0.10;;;;;;;2.28;98.47;98982.00;5075501;28;20470;-50
2024/03/02 04:30:54;;;;;;;0.20;0.20;;;;;;;2.30;99.50;98988.06;5066644;28;20478;-51
2024/03/02 04:33:21;;;;;;;0.20;0.10;;;;;;;2.18;98.84;98995.25;5069071;28;20456;-50
2024/03/02 04:35:47;;;;;;;0.20;0.20;;;;;;;2.17;99.24;98997.03;5054783;28;20448;-50
2024/03/02 04:38:14;;;;;;;0.20;0.10;;;;;;;2.32;98.90;99002.00;5054720;28;20476;-50
2024/03/02 04:40:40;;;;;;;0.20;0.10;;;;;;;2.13;98.57;99005.81;5074866;28;20534;-51
2024/03/02 04:43:09;;;;;;;0.20;0.10;;;;;;;2.28;98.23;99000.34;5066309;28;20454;-50
2024/03/02 04:45:38;;;;;;;0.20;0.10;;;;;;;2.16;97.51;98994.44;5055230;28;20857;-50
2024/03/02 04:48:05;;;;;;;0.20;0.10;;;;;;;1.92;98.52;99001.78;5070202;28;20504;-51
2024/03/02 04:50:32;;;;;;;0.20;0.10;;;;;;;2.02;100.00;98998.13;5075188;28;20523;-50
2024/03/02 04:52:58;;;;;;;0.20;0.10;;;;;;;2.22;99.32;98999.59;5075309;28;20958;-50
2024/03/02 04:55:45;;;;;;;0.20;0.10;;;;;;;2.05;98.17;99005.06;5075991;28;20513;-50
2024/03/02 04:58:11;;;;;;;0.20;0.10;;;;;;;2.07;98.66;99012.03;5049967;28;20516;-50
2024/03/02 05:00:37;;;;;;;0.20;0.10;;;;;;;2.01;97.88;99014.75;5071061;28;20452;-50
2024/03/02 05:03:04;;;;;;;0.20;0.10;;;;;;;2.18;98.91;99018.84;5048028;28;20939;-51
2024/03/02 05:05:31;;;;;;;0.50;0.50;;;;;;;2.00;100.00;99020.88;5061156;28;20489;-52
2024/03/02 05:07:57;;;;;;;0.20;0.10;;;;;;;2.11;100.00;99018.09;5069148;28;20466;-50
2024/03/02 05:10:24;;;;;;;0.20;0.10;;;;;;;2.46;100.00;99016.66;5075566;28;20588;-50
2024/03/02 05:12:58;;;;;;;0.20;0.10;;;;;;;2.51;100.00;99015.69;5049993;28;20476;-51
2024/03/02 05:15:26;;;;;;;0.20;0.10;;;;;;;2.54;100.00;99014.78;5075452;28;20438;-55
2024/03/02 05:17:53;;;;;;;0.20;0.10;;;;;;;2.69;100.00;99017.13;5073597;28;20516;-49
2024/03/02 05:20:19;;;;;;;0.20;0.10;;;;;;;2.68;100.00;99015.41;5073686;28;20450;-49
2024/03/02 05:22:47;;;;;;;0.20;0.10;;;;;;;2.65;100.00;99021.56;5072922;28;20533;-49
2024/03/02 05:25:13;;;;;;;0.20;0.10;;;;;;;2.78;100.00;99024.00;5069725;28;20449;-49
2024/03/02 05:27:39;;;;;;;0.20;0.10;;;;;;;2.75;100.00;99031.94;5063992;28;20448;-49
2024/03/02 05:30:07;;;;;;;0.20;0.10;;;;;;;2.81;100.00;99031.81;5061209;28;20454;-49
2024/03/02 05:32:34;;;;;;;0.20;0.10;;;;;;;2.87;99.99;99034.31;5057132;28;20450;-49
2024/03/02 05:35:00;;;;;;;0.20;0.10;;;;;;;2.94;99.54;99036.81;5067104;28;20456;-50
2024/03/02 05:37:27;;;;;;;0.20;0.10;;;;;;;3.10;100.00;99026.88;5045497;28;20489;-49
2024/03/02 05:39:53;;;;;;;0.20;0.13;;;;;;;3.12;100.00;99032.09;5065576;28;20517;-49
2024/03/02 05:42:20;;;;;;;0.20;0.10;;;;;;;3.15;100.00;99040.81;5068935;28;20454;-49
2024/03/02 05:44:47;;;;;;;0.20;0.10;;;;;;;2.96;100.00;99031.53;5071250;28;20521;-49
2024/03/02 05:47:13;;;;;;;0.20;0.10;;;;;;;3.16;100.00;99031.16;5066160;28;20484;-49
2024/03/02 05:49:40;;;;;;;0.20;0.10;;;;;;;3.12;100.00;99032.09;5073503;28;20545;-49
2024/03/02 05:52:06;;;;;;;0.20;0.10;;;;;;;3.14;100.00;99035.56;5073420;28;20549;-49
2024/03/02 05:54:33;;;;;;;0.20;0.10;;;;;;;3.23;100.00;99035.38;5073355;28;20484;-49
2024/03/02 05:57:16;;;;;;;0.20;0.10;;;;;;;3.31;100.00;99040.50;5071991;28;20511;-49
2024/03/02 05:59:46;;;;;;;0.20;0.10;;;;;;;3.26;100.00;99041.44;5073488;28;20554;-49
2024/03/02 06:02:13;;;;;;;0.20;0.10;;;;;;;3.28;100.00;99038.78;5071569;28;20450;-49
2024/03/02 06:04:39;;;;;;;0.20;0.10;;;;;;;3.39;100.00;99033.31;5068995;28;20496;-49
2024/03/02 06:07:06;;;;;;;0.20;0.10;;;;;;;3.38;100.00;99037.72;5067727;28;20573;-49
2024/03/02 06:09:32;;;;;;;0.20;0.10;;;;;;;3.36;100.00;99031.63;5074177;28;20473;-49
2024/03/02 06:11:59;;;;;;;0.30;0.10;;;;;;;3.41;100.00;99031.53;5073731;28;20450;-49
2024/03/02 06:14:25;;;;;;;0.20;0.10;;;;;;;3.42;100.00;99026.25;5073636;28;20480;-49
2024/03/02 06:16:51;;;;;;;0.20;0.10;;;;;;;3.40;100.00;99032.44;5073675;28;20524;-49
2024/03/02 06:19:18;;;;;;;0.20;0.10;;;;;;;3.46;100.00;99030.56;5067964;28;20509;-49
2024/03/02 06:21:44;;;;;;;0.20;0.20;;;;;;;3.57;100.00;99035.59;5067270;28;20544;-50
2024/03/02 06:24:11;;;;;;;0.20;0.10;;;;;;;3.63;100.00;99037.22;5073625;28;20449;-49
2024/03/02 06:26:37;;;;;;;0.20;0.10;;;;;;;3.62;100.00;99032.88;5073801;28;20568;-50
2024/03/02 06:29:04;;;;;;;0.20;0.20;;;;;;;3.72;100.00;99042.28;5073552;28;20473;-49
2024/03/02 06:31:31;;;;;;;0.20;0.20;;;;;;;3.73;100.00;99044.03;5057946;28;20476;-49
2024/03/02 06:33:57;;;;;;;0.20;0.10;;;;;;;3.83;100.00;99056.91;5057039;28;20869;-49
2024/03/02 06:36:23;;;;;;;0.20;0.10;;;;;;;3.95;100.00;99052.28;5048181;28;20952;-49
2024/03/02 06:38:50;;;;;;;0.20;0.10;;;;;;;4.05;100.00;99049.44;5061593;28;20835;-49
2024/03/02 06:41:16;;;;;;;0.20;0.10;;;;;;;3.98;100.00;99058.38;5073110;28;20998;-49
2024/03/02 06:43:43;;;;;;;0.20;0.10;;;;;;;3.95;100.00;99058.41;5065181;28;20464;-49
2024/03/02 06:46:09;;;;;;;0.20;0.10;;;;;;;4.08;100.00;99051.13;5072464;28;20998;-49
2024/03/02 06:48:36;;;;;;;0.20;0.10;;;;;;;4.07;100.00;99055.50;5073184;28;20491;-49
2024/03/02 06:51:03;;;;;;;0.20;0.20;;;;;;;4.03;100.00;99048.59;5059907;28;20454;-49
2024/03/02 06:53:30;;;;;;;0.33;0.33;;;;;;;4.19;100.00;99059.63;5073464;28;20533;-49
2024/03/02 06:55:56;;;;;;;0.20;0.10;;;;;;;4.17;100.00;99069.34;5072907;28;20478;-49
2024/03/02 06:58:22;;;;;;;0.20;0.10;;;;;;;4.15;100.00;99072.00;5073599;28;20490;-49
2024/03/02 07:00:49;;;;;;;0.20;0.10;;;;;;;4.03;100.00;99071.41;5071198;28;20830;-49
2024/03/02 07:03:15;;;;;;;0.20;0.13;;;;;;;4.13;100.00;99063.28;5073442;28;20544;-49
2024/03/02 07:05:42;;;;;;;0.20;0.20;;;;;;;4.28;100.00;99067.34;5073505;28;20455;-49
2024/03/02 07:08:09;;;;;;;0.20;0.20;;;;;;;4.38;100.00;99058.31;5073908;28;21080;-49
2024/03/02 07:10:35;;;;;;;0.20;0.10;;;;;;;4.41;100.00;99066.16;5060809;28;20504;-49
2024/03/02 07:13:02;;;;;;;0.33;0.33;;;;;;;4.46;100.00;99069.53;5074170;28;20481;-49
2024/03/02 07:17:55;;;;;;;0.20;0.10;;;;;;;4.60;100.00;99073.59;5075426;28;20548;-49
2024/03/02 07:20:22;;;;;;;0.63;0.60;;;;;;;4.61;100.00;99075.31;5062670;28;20441;-49
2024/03/02 07:22:49;;;;;;;0.20;0.10;;;;;;;4.62;100.00;99071.78;5065081;28;20486;-49
2024/03/02 07:25:16;;;;;;;0.30;0.20;;;;;;;4.71;100.00;99077.69;5072119;28;20501;-49
2024/03/02 07:27:45;;;;;;;0.30;0.27;;;;;;;4.83;100.00;99080.94;5075052;28;20585;-49
2024/03/02 07:30:17;;;;;;;0.30;0.10;;;;;;;4.94;100.00;99078.91;5074665;28;20481;-49
2024/03/02 07:32:45;;;;;;;0.20;0.10;;;;;;;4.86;100.00;99078.22;5057660;28;20978;-49
2024/03/02 07:35:15;;;;;;;0.20;0.10;;;;;;;4.91;100.00;99086.84;5068767;28;20442;-49
2024/03/02 07:37:42;;;;;;;0.20;0.10;;;;;;;4.98;100.00;99083.19;5053990;28;20530;-49
2024/03/02 07:40:12;;;;;;;0.20;0.10;;;;;;;5.06;100.00;99084.69;5073164;28;20536;-49
2024/03/02 07:42:40;;;;;;;0.20;0.10;;;;;;;5.09;100.00;99075.00;5068856;28;20513;-49
2024/03/02 07:45:06;;;;;;;0.77;0.77;;;;;;;5.26;100.00;99084.19;5052774;28;20454;-49
2024/03/02 07:47:36;;;;;;;0.20;0.20;;;;;;;5.49;100.00;99083.56;5070107;28;20482;-49
2024/03/02 07:50:06;;;;;;;0.20;0.20;;;;;;;5.39;100.00;99083.88;5048277;28;20533;-49
2024/03/02 07:52:33;;;;;;;0.20;0.20;;;;;;;5.52;100.00;99085.25;5059276;28;20454;-49
2024/03/02 07:54:59;;;;;;;0.30;0.20;;;;;;;5.59;100.00;99092.94;5078505;28;20450;-49
2024/03/02 07:57:26;;;;;;;0.30;0.10;;;;;;;5.63;100.00;99093.72;5077984;28;20442;-49
2024/03/02 07:59:53;;;;;;;0.20;0.10;;;;;;;5.58;100.00;99099.13;5067648;28;20547;-48
2024/03/02 08:02:20;;;;;;;0.30;0.20;;;;;;;5.47;100.00;99103.81;5053393;28;20861;-49
2024/03/02 08:04:46;;;;;;;0.20;0.10;;;;;;;5.65;100.00;99100.69;5060247;28;20533;-49
2024/03/02 08:07:12;;;;;;;0.30;0.20;;;;;;;5.69;100.00;99101.47;5073188;28;20489;-49
2024/03/02 08:09:39;;;;;;;0.30;0.20;;;;;;;5.79;100.00;99105.56;5071975;28;20515;-49
2024/03/02 08:12:06;;;;;;;0.30;0.20;;;;;;;5.98;100.00;99112.97;5077819;28;20453;-48
2024/03/02 08:14:32;;;;;;;0.23;0.10;;;;;;;6.12;100.00;99106.38;5077551;28;20545;-49
2024/03/02 08:17:01;;;;;;;0.30;0.10;;;;;;;6.00;100.00;99105.88;5051911;28;20827;-49
2024/03/02 08:19:27;;;;;;;0.30;0.10;;;;;;;6.09;100.00;99106.47;5052232;28;20470;-49
2024/03/02 08:21:54;;;;;;;0.47;0.40;;;;;;;6.22;100.00;99109.63;5075026;28;20449;-49
2024/03/02 08:24:21;;;;;;;0.30;0.20;;;;;;;6.33;100.00;99104.03;5071540;28;20481;-49
2024/03/02 08:26:47;;;;;;;0.30;0.20;;;;;;;6.34;100.00;99109.25;5075582;28;20490;-49
2024/03/02 08:29:14;;;;;;;0.30;0.20;;;;;;;6.48;100.00;99100.91;5075895;28;20461;-49
2024/03/02 08:31:40;;;;;;;0.30;0.20;;;;;;;6.53;100.00;99106.91;5053360;28;20530;-49
2024/03/02 08:34:07;;;;;;;0.30;0.20;;;;;;;6.70;100.00;99104.59;5048822;28;20458;-48
2024/03/02 08:36:34;;;;;;;0.30;0.20;;;;;;;6.79;100.00;99106.06;5044469;28;20454;-49
2024/03/02 08:39:01;;;;;;;0.30;0.20;;;;;;;6.86;100.00;99099.69;5058874;28;20465;-49
2024/03/02 08:41:28;;;;;;;0.30;0.20;;;;;;;6.80;100.00;99100.75;5048068;28;20497;-49
2024/03/02 08:43:55;;;;;;;0.30;0.20;;;;;;;6.73;100.00;99103.66;5046382;28;20468;-49
2024/03/02 08:46:21;;;;;;;0.43;0.43;;;;;;;6.72;100.00;99099.28;5056146;28;20531;-49
2024/03/02 08:48:47;;;;;;;0.30;0.20;;;;;;;6.84;100.00;99090.94;5057708;28;20474;-49
2024/03/02 08:51:14;;;;;;;0.30;0.13;;;;;;;7.03;100.00;99101.78;5065345;28;20454;-49
2024/03/02 08:53:40;;;;;;;0.30;0.20;;;;;;;7.13;100.00;99098.78;5073393;28;20541;-49
2024/03/02 08:56:07;;;;;;;0.30;0.20;;;;;;;7.18;100.00;99093.31;5052856;28;20546;-49
2024/03/02 08:58:33;;;;;;;0.30;0.20;;;;;;;7.15;100.00;99103.16;5047374;28;20522;-48
2024/03/02 09:01:00;;;;;;;0.30;0.20;;;;;;;7.25;100.00;99100.13;5051136;28;20493;-46
2024/03/02 09:03:26;;;;;;;0.30;0.20;;;;;;;7.35;100.00;99106.81;5064349;28;20450;-47
2024/03/02 09:05:53;;;;;;;0.30;0.20;;;;;;;7.44;100.00;99100.34;5075045;28;20895;-47
2024/03/02 09:08:19;;;;;;;0.40;0.40;;;;;;;7.56;100.00;99104.34;5066488;28;20489;-47
2024/03/02 09:10:46;;;;;;;0.30;0.20;;;;;;;7.66;100.00;99103.94;5074058;28;20448;-47
2024/03/02 09:13:12;;;;;;;0.30;0.20;;;;;;;7.60;100.00;99103.31;5070587;28;20446;-47
2024/03/02 09:15:39;;;;;;;0.30;0.20;;;;;;;7.71;100.00;99098.50;5058879;28;20463;-47
2024/03/02 09:18:06;;;;;;;0.30;0.20;;;;;;;7.85;100.00;99101.53;5058196;28;20470;-47
2024/03/02 09:20:33;;;;;;;0.30;0.20;;;;;;;8.02;99.50;99096.47;5055039;28;20952;-47
2024/03/02 09:22:59;;;;;;;0.30;0.20;;;;;;;8.14;99.63;99089.84;5052605;28;20827;-47
2024/03/02 09:25:26;;;;;;;0.30;0.20;;;;;;;8.11;99.79;99084.66;5048207;28;20450;-48
2024/03/02 09:27:52;;;;;;;0.30;0.20;;;;;;;8.23;98.85;99086.00;5046121;28;21019;-47
2024/03/02 09:30:19;;;;;;;0.30;0.30;;;;;;;8.09;100.00;99083.88;5063779;28;20447;-47
2024/03/02 09:32:45;;;;;;;0.30;0.20;;;;;;;8.29;99.39;99088.38;5055713;28;20450;-47
2024/03/02 09:35:15;;;;;;;0.30;0.20;;;;;;;8.40;99.20;99088.00;5061186;28;20456;-47
2024/03/02 09:37:42;;;;;;;0.30;0.20;;;;;;;8.55;99.25;99079.47;5045933;28;20447;-48
2024/03/02 09:40:09;;;;;;;0.30;0.20;;;;;;;8.81;98.38;99078.41;5046662;28;20508;-49
2024/03/02 09:42:36;;;;;;;0.30;0.20;;;;;;;9.06;97.43;99078.25;5043095;28;20497;-47
2024/03/02 09:45:03;;;;;;;0.30;0.20;;;;;;;9.11;97.26;99073.63;5051627;28;20458;-48
2024/03/02 09:47:30;;;;;;;0.30;0.20;;;;;;;9.35;96.56;99069.06;5047754;28;20618;-48
2024/03/02 09:49:56;;;;;;;0.30;0.20;;;;;;;9.50;96.46;99066.59;5038726;28;20464;-48
2024/03/02 09:52:23;;;;;;;0.30;0.20;;;;;;;9.85;95.88;99061.50;5057599;28;20457;-47
2024/03/02 09:54:50;;;;;;;0.30;0.20;;;;;;;9.97;95.20;99060.06;5046648;28;20540;-48
2024/03/02 09:57:16;;;;;;;0.30;0.20;;;;;;;10.04;94.11;99062.41;5071217;28;20496;-50
2024/03/02 09:59:43;;;;;;;0.30;0.20;;;;;;;10.30;94.09;99068.31;5043162;28;20560;-47
2024/03/02 10:02:09;;;;;;;0.30;0.20;;;;;;;10.24;93.68;99066.78;5065879;28;20453;-47
2024/03/02 10:04:36;;;;;;;0.30;0.20;;;;;;;10.17;94.04;99075.09;5070716;28;20453;-48
2024/03/02 10:07:10;;;;;;;0.30;0.20;;;;;;;10.07;94.27;99066.69;5066192;28;21048;-47
2024/03/02 10:09:37;;;;;;;0.30;0.20;;;;;;;10.02;95.44;99060.75;5072542;28;20511;-46
2024/03/02 10:12:05;;;;;;;0.30;0.20;;;;;;;9.92;96.04;99068.25;5061275;28;20456;-47
2024/03/02 10:14:31;;;;;;;0.30;0.20;;;;;;;10.05;96.22;99069.44;5062465;28;20531;-47
2024/03/02 10:17:06;;;;;;;0.30;0.20;;;;;;;10.29;95.15;99070.13;5068031;28;20456;-47
2024/03/02 10:19:34;;;;;;;0.30;0.20;;;;;;;10.18;94.21;99064.41;5053725;28;20982;-47
2024/03/02 10:22:03;;;;;;;0.30;0.20;;;;;;;10.13;94.18;99055.78;5069397;28;20525;-47
2024/03/02 10:24:47;;;;;;;0.30;0.20;;;;;;;10.27;94.69;99058.69;5064365;28;20809;-48
2024/03/02 10:27:18;;;;;;;0.30;0.20;;;;;;;10.14;94.45;99056.63;5046074;28;20489;-47
2024/03/02 10:29:48;;;;;;;0.30;0.20;;;;;;;10.23;94.00;99058.91;5072111;28;21016;-48
2024/03/02 10:32:15;;;;;;;0.30;0.20;;;;;;;10.46;93.95;99056.03;5060409;28;20870;-48
2024/03/02 10:34:45;;;;;;;0.30;0.20;;;;;;;10.48;93.09;99056.81;5070173;28;20450;-48
2024/03/02 10:37:12;;;;;;;0.30;0.20;;;;;;;10.74;92.44;99052.88;5035097;28;21042;-48
2024/03/02 10:39:39;;;;;;;0.30;0.20;;;;;;;10.77;91.58;99059.84;5053054;28;20471;-48
2024/03/02 10:42:08;;;;;;;0.30;0.20;;;;;;;10.91;91.34;99058.22;5068219;28;20467;-47
2024/03/02 10:44:35;;;;;;;0.30;0.20;;;;;;;11.17;90.88;99053.41;5060856;28;20859;-48
2024/03/02 10:47:03;;;;;;;0.30;0.20;;;;;;;11.29;90.11;99052.78;5055574;28;20492;-45
2024/03/02 10:49:31;;;;;;;0.30;0.20;;;;;;;11.54;89.83;99047.06;5066990;28;20474;-46
2024/03/02 10:51:59;;;;;;;0.30;0.20;;;;;;;11.30;89.00;99043.84;5064315;28;20538;-45
2024/03/02 10:54:26;;;;;;;0.30;0.20;;;;;;;11.45;88.24;99037.72;5068623;28;20450;-45
2024/03/02 10:56:58;;;;;;;0.30;0.20;;;;;;;11.57;87.92;99044.22;5070755;28;20491;-46
2024/03/02 10:59:24;;;;;;;0.30;0.20;;;;;;;11.51;86.88;99029.44;5052952;28;20862;-44
2024/03/02 11:01:53;;;;;;;0.30;0.20;;;;;;;11.43;87.13;99030.78;5055445;28;20939;-46
2024/03/02 11:04:24;;;;;;;0.30;0.20;;;;;;;11.61;87.58;99027.13;5065204;28;20454;-45
2024/03/02 11:06:51;;;;;;;0.30;0.20;;;;;;;11.57;86.91;99022.94;5072139;28;20495;-45
2024/03/02 11:09:21;;;;;;;0.30;0.20;;;;;;;11.58;86.42;99016.66;5061947;28;20461;-45
2024/03/02 11:12:06;;;;;;;0.30;0.20;;;;;;;11.69;85.90;99014.28;5072342;28;20453;-46
2024/03/02 11:14:33;;;;;;;0.40;0.20;;;;;;;11.86;85.26;99016.06;5071993;28;20843;-45
2024/03/02 11:17:03;;;;;;;0.30;0.20;;;;;;;11.87;85.51;99009.78;5073409;28;20794;-46
2024/03/02 11:19:30;;;;;;;0.30;0.20;;;;;;;11.74;84.14;99006.91;5053376;28;20467;-47
2024/03/02 11:21:58;;;;;;;0.30;0.20;;;;;;;12.03;84.44;99000.03;5071163;28;20456;-47
2024/03/02 11:24:24;;;;;;;0.30;0.20;;;;;;;12.26;83.65;98998.75;5074241;28;20456;-47
2024/03/02 11:26:51;;;;;;;0.30;0.20;;;;;;;12.65;82.21;99003.63;5075352;28;20822;-48
2024/03/02 11:29:36;;;;;;;0.30;0.20;;;;;;;12.91;80.03;99001.25;5069417;28;20452;-48
2024/03/02 11:32:04;;;;;;;0.30;0.20;;;;;;;12.80;79.65;98998.34;5057819;28;20536;-48
2024/03/02 11:34:31;;;;;;;0.30;0.20;;;;;;;13.11;77.74;98998.25;5075616;28;20540;-47
2024/03/02 11:37:01;;;;;;;0.40;0.40;;;;;;;12.82;76.75;98991.97;5048746;28;20451;-48
2024/03/02 11:39:28;;;;;;;0.30;0.20;;;;;;;12.51;76.43;98995.56;5051157;28;20481;-48
2024/03/02 11:41:56;;;;;;;0.30;0.20;;;;;;;12.90;76.15;98988.88;5065470;28;20511;-47